createdAt,value
2023-01-08T04:33:42.654Z,12.20
2023-01-08T04:36:10.205Z,12.60
2023-01-08T04:38:37.029Z,13.60
2023-01-08T04:41:04.526Z,12.00
2023-01-08T04:43:31.824Z,13.80
2023-01-08T04:45:59.652Z,12.70
2023-01-08T04:48:27.545Z,11.80
2023-01-08T04:50:54.476Z,13.20
2023-01-08T04:53:21.252Z,13.30
2023-01-08T04:55:48.070Z,14.20
2023-01-08T04:58:14.939Z,13.80
2023-01-08T05:00:41.756Z,14.50
2023-01-08T05:03:08.540Z,11.40
2023-01-08T05:05:35.494Z,12.50
2023-01-08T05:08:02.371Z,13.20
2023-01-08T05:10:29.160Z,13.40
2023-01-08T05:13:00.125Z,12.00
2023-01-08T05:15:27.080Z,14.20
2023-01-08T05:18:01.193Z,13.20
2023-01-08T05:20:28.122Z,11.90
2023-01-08T05:22:54.955Z,12.90
2023-01-08T05:25:21.790Z,12.10
2023-01-08T05:27:48.652Z,13.40
2023-01-08T05:30:15.663Z,14.70
2023-01-08T05:32:42.705Z,14.50
2023-01-08T05:35:09.971Z,13.90
2023-01-08T05:37:37.678Z,13.30
2023-01-08T05:40:05.365Z,13.90
2023-01-08T05:42:34.145Z,13.80
2023-01-08T05:45:05.543Z,13.20
2023-01-08T05:47:32.988Z,14.30
2023-01-08T05:49:59.822Z,14.80
2023-01-08T05:52:26.674Z,15.50
2023-01-08T05:54:53.480Z,14.40
2023-01-08T05:57:20.286Z,13.70
2023-01-08T05:59:47.112Z,16.00
2023-01-08T06:02:13.979Z,13.50
2023-01-08T06:04:40.981Z,13.90
2023-01-08T06:07:08.595Z,12.30
2023-01-08T06:09:35.450Z,14.90
2023-01-08T06:12:02.314Z,14.60
2023-01-08T06:14:29.133Z,14.20
2023-01-08T06:16:56.013Z,14.40
2023-01-08T06:19:22.797Z,14.30
2023-01-08T06:21:49.615Z,12.90
2023-01-08T06:24:16.392Z,14.40
2023-01-08T06:26:43.243Z,14.30
2023-01-08T06:29:10.073Z,14.00
2023-01-08T06:31:38.200Z,12.50
2023-01-08T06:34:05.008Z,12.50
2023-01-08T06:36:31.887Z,12.50
2023-01-08T06:38:58.767Z,13.30
2023-01-08T06:41:25.580Z,13.30
2023-01-08T06:43:52.510Z,14.00
2023-01-08T06:46:19.345Z,15.00
2023-01-08T06:48:46.207Z,14.10
2023-01-08T06:51:13.023Z,14.10
2023-01-08T06:53:39.896Z,13.30
2023-01-08T06:56:09.834Z,14.10
2023-01-08T06:58:37.367Z,12.80
2023-01-08T07:01:04.354Z,13.20
2023-01-08T07:03:31.325Z,12.90
2023-01-08T07:05:58.333Z,14.20
2023-01-08T07:08:25.272Z,13.50
2023-01-08T07:10:52.182Z,13.20
2023-01-08T07:13:18.972Z,12.80
2023-01-08T07:15:45.878Z,13.20
2023-01-08T07:18:13.522Z,13.10
2023-01-08T07:20:40.480Z,13.40
2023-01-08T07:23:09.617Z,12.70
2023-01-08T07:25:36.399Z,14.20
2023-01-08T07:28:03.271Z,13.50
2023-01-08T07:30:30.874Z,13.70
2023-01-08T07:33:01.541Z,14.20
2023-01-08T07:35:28.826Z,12.80
2023-01-08T07:37:55.745Z,12.80
2023-01-08T07:40:22.678Z,12.80
2023-01-08T07:42:56.877Z,12.80
2023-01-08T07:45:23.672Z,11.60
2023-01-08T07:47:50.455Z,11.70
2023-01-08T07:50:17.253Z,12.00
2023-01-08T07:52:44.205Z,13.30
2023-01-08T07:55:11.017Z,12.40
2023-01-08T07:57:37.838Z,13.10
2023-01-08T08:00:05.414Z,13.40
2023-01-08T08:02:33.839Z,13.00
2023-01-08T08:05:00.952Z,12.00
2023-01-08T08:07:32.012Z,12.50
2023-01-08T08:09:59.835Z,13.40
2023-01-08T08:12:26.671Z,14.30
2023-01-08T08:14:53.561Z,12.40
2023-01-08T08:17:20.460Z,14.60
2023-01-08T08:19:47.429Z,14.50
2023-01-08T08:22:14.479Z,13.50
2023-01-08T08:24:41.349Z,12.00
2023-01-08T08:27:08.258Z,13.70
2023-01-08T08:29:35.049Z,13.70
2023-01-08T08:32:01.908Z,12.00
2023-01-08T08:34:28.958Z,12.30
2023-01-08T08:36:55.810Z,12.90
2023-01-08T08:39:22.898Z,12.60
2023-01-08T08:41:49.719Z,12.50
2023-01-08T08:44:16.544Z,12.40
2023-01-08T08:46:43.409Z,13.60
2023-01-08T08:49:10.514Z,13.90
2023-01-08T08:51:37.665Z,13.10
2023-01-08T08:54:04.514Z,12.50
2023-01-08T08:56:31.533Z,11.30
2023-01-08T08:58:58.503Z,10.00
2023-01-08T09:01:25.397Z,11.30
2023-01-08T09:03:52.412Z,10.70
2023-01-08T09:06:19.204Z,13.20
2023-01-08T09:08:45.998Z,12.40
2023-01-08T09:11:15.037Z,11.80
2023-01-08T09:13:41.984Z,12.50
2023-01-08T09:16:08.936Z,11.90
2023-01-08T09:18:35.801Z,13.10
2023-01-08T09:21:07.068Z,12.10
2023-01-08T09:23:34.835Z,11.60
2023-01-08T09:26:02.384Z,11.60
2023-01-08T09:28:29.299Z,11.20
2023-01-08T09:30:56.341Z,12.00
2023-01-08T09:33:23.466Z,13.00
2023-01-08T09:35:50.634Z,14.00
2023-01-08T09:38:17.730Z,13.30
2023-01-08T09:40:52.191Z,12.30
2023-01-08T09:43:20.208Z,13.70
2023-01-08T09:45:51.304Z,13.40
2023-01-08T09:48:18.612Z,14.10
2023-01-08T09:50:45.482Z,13.80
2023-01-08T09:53:15.235Z,16.10
2023-01-08T09:55:42.882Z,15.40
2023-01-08T09:58:33.872Z,14.40
2023-01-08T10:01:02.365Z,15.10
2023-01-08T10:03:40.426Z,15.00
2023-01-08T10:06:12.039Z,12.60
2023-01-08T10:08:38.977Z,14.00
2023-01-08T10:11:07.323Z,14.40
2023-01-08T10:13:35.376Z,14.50
2023-01-08T10:16:05.630Z,14.70
2023-01-08T10:18:32.528Z,15.00
2023-01-08T10:20:59.488Z,14.10
2023-01-08T10:23:26.491Z,14.30
2023-01-08T10:25:58.936Z,14.80
2023-01-08T10:28:31.423Z,14.10
2023-01-08T10:31:12.082Z,15.20
2023-01-08T10:33:40.344Z,15.20
2023-01-08T10:36:08.719Z,15.70
2023-01-08T10:38:38.068Z,13.90
2023-01-08T10:41:05.798Z,13.50
2023-01-08T10:43:35.052Z,12.70
2023-01-08T10:46:08.176Z,14.20
2023-01-08T10:48:39.630Z,13.10
2023-01-08T10:51:18.588Z,15.40
2023-01-08T10:53:45.423Z,15.50
2023-01-08T10:56:23.893Z,14.80
2023-01-08T10:58:54.672Z,14.40
2023-01-08T11:01:29.095Z,15.80
2023-01-08T11:04:03.334Z,17.10
2023-01-08T11:06:31.915Z,16.10
2023-01-08T11:09:00.822Z,18.20
2023-01-08T11:11:37.557Z,18.30
2023-01-08T11:14:07.102Z,18.60
2023-01-08T11:16:38.330Z,19.50
2023-01-08T11:19:05.686Z,17.00
2023-01-08T11:21:33.230Z,18.80
2023-01-08T11:24:21.503Z,18.90
2023-01-08T11:26:50.939Z,19.70
2023-01-08T11:29:51.496Z,20.40
2023-01-08T11:32:18.678Z,21.10
2023-01-08T11:34:54.799Z,20.50
2023-01-08T11:37:35.681Z,20.90
2023-01-08T11:40:03.869Z,20.10
2023-01-08T11:42:49.390Z,23.00
2023-01-08T11:45:26.064Z,23.90
2023-01-08T11:48:24.109Z,23.30
2023-01-08T11:51:04.306Z,24.10
2023-01-08T11:53:42.093Z,23.40
2023-01-08T11:56:33.371Z,23.90
2023-01-08T11:59:29.471Z,22.70
2023-01-08T12:02:20.784Z,20.40
2023-01-08T12:05:11.061Z,21.30
2023-01-08T12:07:43.313Z,21.40
2023-01-08T12:10:29.345Z,21.80
2023-01-08T12:13:21.929Z,23.30
2023-01-08T12:15:51.760Z,21.30
2023-01-08T12:18:47.484Z,19.50
2023-01-08T12:21:17.223Z,22.80
2023-01-08T12:24:11.408Z,23.20
2023-01-08T12:27:00.975Z,20.50
2023-01-08T12:29:54.816Z,19.60
2023-01-08T12:32:24.968Z,18.00
2023-01-08T12:35:15.570Z,15.50
2023-01-08T12:37:46.693Z,17.40
2023-01-08T12:40:25.232Z,14.30
2023-01-08T12:43:00.449Z,15.20
2023-01-08T12:45:29.727Z,14.90
2023-01-08T12:48:08.587Z,16.10
2023-01-08T12:50:49.656Z,15.90
2023-01-08T12:53:22.742Z,14.40
2023-01-08T12:56:10.813Z,17.10
2023-01-08T12:58:46.293Z,14.90
2023-01-08T13:01:38.157Z,14.10
2023-01-08T13:04:06.208Z,14.50
2023-01-08T13:06:33.184Z,13.10
2023-01-08T13:09:01.500Z,13.60
2023-01-08T13:11:31.167Z,14.90
2023-01-08T13:14:08.854Z,14.30
2023-01-08T13:16:40.278Z,14.30
2023-01-08T13:19:08.470Z,12.60
2023-01-08T13:21:49.974Z,13.00
2023-01-08T13:24:33.219Z,12.40
2023-01-08T13:27:16.995Z,13.80
2023-01-08T13:29:47.873Z,11.80
2023-01-08T13:32:38.910Z,12.90
2023-01-08T13:35:15.078Z,12.20
2023-01-08T13:37:52.976Z,11.60
2023-01-08T13:40:35.461Z,11.10
2023-01-08T13:43:11.350Z,11.60
2023-01-08T13:45:38.233Z,12.00
2023-01-08T13:48:05.178Z,12.70
2023-01-08T13:50:32.684Z,13.70
2023-01-08T13:53:00.970Z,13.80
2023-01-08T13:55:39.098Z,13.20
2023-01-08T13:58:12.293Z,12.20
2023-01-08T14:00:42.456Z,13.50
2023-01-08T14:03:29.517Z,13.40
2023-01-08T14:06:19.327Z,12.10
2023-01-08T14:08:53.708Z,13.00
2023-01-08T14:11:21.381Z,14.70
2023-01-08T14:13:48.140Z,12.80
2023-01-08T14:16:15.536Z,11.60
2023-01-08T14:18:43.615Z,11.20
2023-01-08T14:21:12.929Z,11.70
2023-01-08T14:23:46.233Z,10.10
2023-01-08T14:26:40.972Z,12.10
2023-01-08T14:29:15.837Z,10.00
2023-01-08T14:31:50.231Z,10.50
2023-01-08T14:34:17.069Z,10.70
2023-01-08T14:36:43.909Z,10.10
2023-01-08T14:39:25.686Z,11.00
2023-01-08T14:42:12.199Z,10.20
2023-01-08T14:44:42.456Z,11.30
2023-01-08T14:47:16.920Z,10.50
2023-01-08T14:49:44.877Z,10.80
2023-01-08T14:52:15.490Z,11.30
2023-01-08T14:54:42.359Z,10.50
2023-01-08T14:57:11.433Z,11.10
2023-01-08T14:59:38.276Z,14.00
2023-01-08T15:02:06.507Z,12.20
2023-01-08T15:04:33.616Z,13.40
2023-01-08T15:07:09.092Z,11.80
2023-01-08T15:09:36.381Z,11.20
2023-01-08T15:12:05.149Z,12.80
2023-01-08T15:14:33.716Z,13.90
2023-01-08T15:17:08.509Z,14.10
2023-01-08T15:19:40.418Z,13.90
2023-01-08T15:22:14.129Z,13.80
2023-01-08T15:24:41.677Z,16.40
2023-01-08T15:27:18.229Z,14.60
2023-01-08T15:29:49.854Z,14.60
2023-01-08T15:32:16.867Z,14.00
2023-01-08T15:34:44.314Z,14.20
2023-01-08T15:37:11.369Z,13.40
2023-01-08T15:39:38.440Z,14.90
2023-01-08T15:42:40.478Z,14.90
2023-01-08T15:45:18.454Z,14.90
2023-01-08T15:47:45.409Z,15.40
2023-01-08T15:50:12.515Z,14.40
2023-01-08T15:52:40.817Z,14.70
2023-01-08T15:55:08.213Z,14.90
2023-01-08T15:57:35.385Z,13.70
2023-01-08T16:00:02.940Z,16.30
2023-01-08T16:02:46.416Z,14.50
2023-01-08T16:05:17.773Z,13.80
2023-01-08T16:07:46.403Z,13.10
2023-01-08T16:10:16.865Z,14.70
2023-01-08T16:12:43.704Z,14.20
2023-01-08T16:15:11.629Z,13.10
2023-01-08T16:17:38.684Z,13.70
2023-01-08T16:20:06.170Z,14.20
2023-01-08T16:22:33.737Z,13.60
2023-01-08T16:25:00.771Z,13.40
2023-01-08T16:27:27.830Z,13.50
2023-01-08T16:29:54.615Z,13.10
2023-01-08T16:32:21.515Z,13.00
2023-01-08T16:34:48.575Z,14.20
2023-01-08T16:37:15.426Z,13.50
2023-01-08T16:39:42.266Z,15.10
2023-01-08T16:42:09.782Z,13.80
2023-01-08T16:44:36.949Z,13.50
2023-01-08T16:47:04.143Z,13.80
2023-01-08T16:50:36.204Z,14.60
2023-01-08T16:53:03.993Z,12.50
2023-01-08T16:55:31.536Z,13.50
2023-01-08T16:57:58.188Z,13.90
2023-01-08T17:00:25.117Z,13.70
2023-01-08T17:02:51.878Z,16.00
2023-01-08T17:05:18.917Z,14.30
2023-01-08T17:07:45.958Z,13.40
2023-01-08T17:10:12.804Z,15.40
2023-01-08T17:12:39.441Z,13.70
2023-01-08T17:15:07.399Z,13.90
2023-01-08T17:17:34.907Z,12.60
2023-01-08T17:20:01.954Z,12.40
2023-01-08T17:22:29.260Z,13.10
2023-01-08T17:24:56.014Z,12.80
2023-01-08T17:27:23.087Z,16.40
2023-01-08T17:29:49.810Z,14.20
2023-01-08T17:32:16.701Z,13.70
2023-01-08T17:34:44.204Z,12.90
2023-01-08T17:37:10.942Z,13.20
2023-01-08T17:39:37.812Z,13.20
2023-01-08T17:42:23.002Z,12.00
2023-01-08T17:44:50.331Z,10.60
2023-01-08T17:47:21.314Z,11.40
2023-01-08T17:49:52.052Z,10.80
2023-01-08T17:52:18.824Z,12.30
2023-01-08T17:54:49.060Z,12.90
2023-01-08T17:57:19.131Z,13.20
2023-01-08T17:59:46.197Z,12.10
2023-01-08T18:02:15.905Z,13.90
2023-01-08T18:04:44.918Z,12.80
2023-01-08T18:07:11.818Z,12.40
2023-01-08T18:09:39.058Z,13.00
2023-01-08T18:12:06.809Z,12.90
2023-01-08T18:14:38.499Z,13.40
2023-01-08T18:17:05.441Z,12.50
2023-01-08T18:19:32.340Z,11.90
2023-01-08T18:21:58.982Z,11.50
2023-01-08T18:24:26.526Z,11.30
2023-01-08T18:26:53.432Z,11.30
2023-01-08T18:29:20.718Z,12.30
2023-01-08T18:31:47.606Z,10.80
2023-01-08T18:34:14.878Z,11.50
2023-01-08T18:36:41.835Z,11.10
2023-01-08T18:39:09.000Z,11.50
2023-01-08T18:41:55.114Z,9.50
2023-01-08T18:44:22.116Z,12.80
2023-01-08T18:46:48.679Z,12.10
2023-01-08T18:49:15.304Z,10.50
2023-01-08T18:51:42.304Z,12.50
2023-01-08T18:54:10.779Z,12.60
2023-01-08T18:56:39.225Z,11.30
2023-01-08T18:59:06.195Z,10.00
2023-01-08T19:01:34.351Z,11.30
2023-01-08T19:04:16.485Z,9.40
2023-01-08T19:06:43.358Z,13.00
2023-01-08T19:09:10.786Z,11.60
2023-01-08T19:11:38.048Z,12.20
2023-01-08T19:14:04.828Z,12.00
2023-01-08T19:16:31.434Z,10.30
2023-01-08T19:18:58.972Z,9.40
2023-01-08T19:21:30.068Z,9.50
2023-01-08T19:23:56.930Z,10.20
2023-01-08T19:26:23.701Z,11.70
2023-01-08T19:28:50.285Z,11.40
2023-01-08T19:31:17.413Z,11.70
2023-01-08T19:33:45.425Z,11.10
2023-01-08T19:36:15.239Z,10.20
2023-01-08T19:38:42.878Z,11.90
2023-01-08T19:41:29.054Z,9.60
2023-01-08T19:43:55.932Z,11.20
2023-01-08T19:46:22.769Z,10.40
2023-01-08T19:48:49.812Z,11.50
2023-01-08T19:51:16.834Z,11.50
2023-01-08T19:53:44.814Z,10.50
2023-01-08T19:56:13.529Z,10.00
2023-01-08T19:58:40.247Z,10.60
2023-01-08T20:01:09.783Z,11.30
2023-01-08T20:03:37.555Z,10.40
2023-01-08T20:06:06.567Z,10.60
2023-01-08T20:08:33.890Z,10.50
2023-01-08T20:11:05.397Z,10.10
2023-01-08T20:13:35.436Z,11.10
2023-01-08T20:16:03.898Z,10.70
2023-01-08T20:18:31.460Z,12.20
2023-01-08T20:21:18.154Z,11.30
2023-01-08T20:23:44.974Z,12.40
2023-01-08T20:26:13.991Z,11.50
2023-01-08T20:28:41.509Z,12.00
2023-01-08T20:31:10.299Z,11.30
2023-01-08T20:33:38.619Z,10.50
2023-01-08T20:36:18.600Z,12.60
2023-01-08T20:38:46.350Z,10.80
2023-01-08T20:41:14.615Z,11.10
2023-01-08T20:43:41.760Z,10.30
2023-01-08T20:46:13.133Z,13.10
2023-01-08T20:48:47.038Z,13.10
2023-01-08T20:51:14.725Z,11.60
2023-01-08T20:53:41.675Z,10.50
2023-01-08T20:56:12.618Z,10.00
2023-01-08T20:58:43.063Z,10.80
2023-01-08T21:01:22.592Z,10.70
2023-01-08T21:03:50.271Z,10.60
2023-01-08T21:06:18.918Z,12.30
2023-01-08T21:08:47.060Z,10.20
2023-01-08T21:11:15.691Z,11.00
2023-01-08T21:13:42.601Z,11.30
2023-01-08T21:16:13.141Z,10.50
2023-01-08T21:18:43.427Z,10.40
2023-01-08T21:21:13.143Z,10.90
2023-01-08T21:23:40.541Z,11.30
2023-01-08T21:26:09.314Z,11.10
2023-01-08T21:28:36.606Z,11.00
2023-01-08T21:31:12.807Z,11.20
2023-01-08T21:33:40.021Z,10.40
2023-01-08T21:36:08.793Z,10.30
2023-01-08T21:38:36.223Z,10.60
2023-01-08T21:41:07.371Z,11.20
2023-01-08T21:43:53.648Z,10.90
2023-01-08T21:46:24.112Z,9.70
2023-01-08T21:48:51.641Z,9.90
2023-01-08T21:51:37.242Z,10.90
2023-01-08T21:54:04.503Z,11.40
2023-01-08T21:56:32.141Z,10.50
2023-01-08T21:58:58.973Z,11.70
2023-01-08T22:01:26.580Z,12.20
2023-01-08T22:03:53.817Z,11.30
2023-01-08T22:06:20.910Z,11.70
2023-01-08T22:08:51.997Z,11.90
2023-01-08T22:11:19.413Z,11.10
2023-01-08T22:13:46.245Z,11.20
2023-01-08T22:16:15.125Z,11.50
2023-01-08T22:18:42.804Z,10.00
2023-01-08T22:21:11.111Z,13.00
2023-01-08T22:23:37.852Z,11.70
2023-01-08T22:26:05.949Z,11.30
2023-01-08T22:28:32.947Z,12.10
2023-01-08T22:31:03.600Z,11.20
2023-01-08T22:33:30.273Z,10.00
2023-01-08T22:35:57.386Z,11.00
2023-01-08T22:38:24.182Z,11.00
2023-01-08T22:40:50.791Z,10.90
2023-01-08T22:43:18.127Z,11.30
2023-01-08T22:45:51.856Z,11.60
2023-01-08T22:48:18.515Z,10.70
2023-01-08T22:50:45.200Z,12.10
2023-01-08T22:53:11.837Z,12.30
2023-01-08T22:55:41.901Z,10.70
2023-01-08T22:58:08.643Z,10.70
2023-01-08T23:00:37.540Z,10.80
2023-01-08T23:03:05.007Z,10.50
2023-01-08T23:05:32.723Z,10.50
2023-01-08T23:08:00.108Z,11.50
2023-01-08T23:10:27.580Z,10.60
2023-01-08T23:12:54.678Z,10.80
2023-01-08T23:15:21.646Z,13.10
2023-01-08T23:17:52.589Z,13.10
2023-01-08T23:20:20.039Z,11.30
2023-01-08T23:22:47.877Z,11.80
2023-01-08T23:25:14.832Z,10.80
2023-01-08T23:27:41.455Z,10.20
2023-01-08T23:30:09.016Z,10.40
2023-01-08T23:32:35.782Z,12.20
2023-01-08T23:35:05.141Z,11.70
2023-01-08T23:37:33.300Z,12.20
2023-01-08T23:40:00.103Z,11.40
2023-01-08T23:42:28.833Z,10.40
2023-01-08T23:44:55.437Z,11.50
2023-01-08T23:47:22.510Z,11.90
2023-01-08T23:49:49.429Z,12.10
2023-01-08T23:52:16.001Z,11.80
2023-01-08T23:54:42.834Z,10.80
2023-01-08T23:57:10.029Z,10.60
2023-01-08T23:59:36.663Z,11.90
